sensor_id;sensor_type;location;lat;lon;timestamp;pressure;altitude;pressure_sealevel;temperature;humidity
69909;BME280;57190;47.918;8.112;2024-02-23T00:00:53;89036.19;;;1.70;84.56
69909;BME280;57190;47.918;8.112;2024-02-23T00:03:19;89039.09;;;1.74;84.91
69909;BME280;57190;47.918;8.112;2024-02-23T00:05:46;89033.59;;;1.81;85.03
69909;BME280;57190;47.918;8.112;2024-02-23T00:08:12;89032.78;;;1.70;85.08
69909;BME280;57190;47.918;8.112;2024-02-23T00:10:37;89040.13;;;1.73;84.83
69909;BME280;57190;47.918;8.112;2024-02-23T00:13:03;89036.47;;;1.79;84.44
69909;BME280;57190;47.918;8.112;2024-02-23T00:15:29;89041.97;;;1.72;84.49
69909;BME280;57190;47.918;8.112;2024-02-23T00:17:55;89053.50;;;1.61;85.09
69909;BME280;57190;47.918;8.112;2024-02-23T00:20:21;89065.31;;;1.64;85.27
69909;BME280;57190;47.918;8.112;2024-02-23T00:22:47;89078.47;;;1.59;85.53
69909;BME280;57190;47.918;8.112;2024-02-23T00:25:13;89082.94;;;1.63;84.64
69909;BME280;57190;47.918;8.112;2024-02-23T00:27:39;89043.53;;;1.63;83.83
69909;BME280;57190;47.918;8.112;2024-02-23T00:30:08;89062.47;;;1.65;83.36
69909;BME280;57190;47.918;8.112;2024-02-23T00:32:33;89066.38;;;1.57;83.61
69909;BME280;57190;47.918;8.112;2024-02-23T00:34:59;89070.00;;;1.46;84.30
69909;BME280;57190;47.918;8.112;2024-02-23T00:37:24;89067.88;;;1.38;84.63
69909;BME280;57190;47.918;8.112;2024-02-23T00:39:50;89055.75;;;1.32;84.68
69909;BME280;57190;47.918;8.112;2024-02-23T00:42:16;89048.94;;;1.36;84.51
69909;BME280;57190;47.918;8.112;2024-02-23T00:44:41;89074.19;;;1.37;85.02
69909;BME280;57190;47.918;8.112;2024-02-23T00:47:08;89052.91;;;1.38;84.77
69909;BME280;57190;47.918;8.112;2024-02-23T00:49:35;89070.25;;;1.39;84.87
69909;BME280;57190;47.918;8.112;2024-02-23T00:52:00;89074.72;;;1.44;84.85
69909;BME280;57190;47.918;8.112;2024-02-23T00:54:26;89084.44;;;1.44;84.59
69909;BME280;57190;47.918;8.112;2024-02-23T00:56:52;89089.69;;;1.44;84.65
69909;BME280;57190;47.918;8.112;2024-02-23T00:59:18;89084.44;;;1.44;84.76
69909;BME280;57190;47.918;8.112;2024-02-23T01:01:45;89103.84;;;1.37;84.77
69909;BME280;57190;47.918;8.112;2024-02-23T01:04:10;89093.31;;;1.32;84.78
69909;BME280;57190;47.918;8.112;2024-02-23T01:06:36;89105.44;;;1.33;84.57
69909;BME280;57190;47.918;8.112;2024-02-23T01:09:03;89107.78;;;1.30;84.86
69909;BME280;57190;47.918;8.112;2024-02-23T01:11:30;89104.59;;;1.28;84.87
69909;BME280;57190;47.918;8.112;2024-02-23T01:13:56;89107.22;;;1.28;84.35
69909;BME280;57190;47.918;8.112;2024-02-23T01:16:22;89117.44;;;1.24;84.52
69909;BME280;57190;47.918;8.112;2024-02-23T01:18:47;89102.00;;;1.33;84.79
69909;BME280;57190;47.918;8.112;2024-02-23T01:21:13;89104.13;;;1.36;84.55
69909;BME280;57190;47.918;8.112;2024-02-23T01:23:39;89109.59;;;1.29;84.36
69909;BME280;57190;47.918;8.112;2024-02-23T01:26:04;89112.97;;;1.19;84.48
69909;BME280;57190;47.918;8.112;2024-02-23T01:28:30;89098.78;;;1.20;83.80
69909;BME280;57190;47.918;8.112;2024-02-23T01:30:56;89099.63;;;1.31;82.85
69909;BME280;57190;47.918;8.112;2024-02-23T01:33:22;89097.50;;;1.28;82.74
69909;BME280;57190;47.918;8.112;2024-02-23T01:35:48;89100.88;;;1.23;82.74
69909;BME280;57190;47.918;8.112;2024-02-23T01:38:14;89109.28;;;1.20;82.75
69909;BME280;57190;47.918;8.112;2024-02-23T01:40:46;89112.44;;;1.22;82.57
69909;BME280;57190;47.918;8.112;2024-02-23T01:43:12;89102.53;;;1.30;81.27
69909;BME280;57190;47.918;8.112;2024-02-23T01:45:38;89106.69;;;1.31;81.57
69909;BME280;57190;47.918;8.112;2024-02-23T01:48:03;89107.22;;;1.28;81.32
69909;BME280;57190;47.918;8.112;2024-02-23T01:50:30;89111.41;;;1.23;81.36
69909;BME280;57190;47.918;8.112;2024-02-23T01:53:00;89107.47;;;1.26;81.28
69909;BME280;57190;47.918;8.112;2024-02-23T01:55:26;89108.00;;;1.23;82.06
69909;BME280;57190;47.918;8.112;2024-02-23T01:57:52;89096.44;;;1.24;81.83
69909;BME280;57190;47.918;8.112;2024-02-23T02:00:19;89086.94;;;1.18;82.61
69909;BME280;57190;47.918;8.112;2024-02-23T02:02:47;89096.88;;;1.10;82.71
69909;BME280;57190;47.918;8.112;2024-02-23T02:05:13;89088.75;;;1.12;82.97
69909;BME280;57190;47.918;8.112;2024-02-23T02:07:40;89086.13;;;1.12;83.33
69909;BME280;57190;47.918;8.112;2024-02-23T02:10:08;89081.63;;;1.07;84.06
69909;BME280;57190;47.918;8.112;2024-02-23T02:12:34;89081.38;;;1.04;83.38
69909;BME280;57190;47.918;8.112;2024-02-23T02:15:00;89087.13;;;1.06;84.12
69909;BME280;57190;47.918;8.112;2024-02-23T02:17:27;89097.41;;;1.07;83.84
69909;BME280;57190;47.918;8.112;2024-02-23T02:19:53;89091.38;;;1.12;83.72
69909;BME280;57190;47.918;8.112;2024-02-23T02:22:18;89078.00;;;1.19;83.71
69909;BME280;57190;47.918;8.112;2024-02-23T02:24:44;89085.38;;;1.17;83.12
69909;BME280;57190;47.918;8.112;2024-02-23T02:27:13;89083.78;;;1.16;82.88
69909;BME280;57190;47.918;8.112;2024-02-23T02:29:39;89077.44;;;1.12;82.02
69909;BME280;57190;47.918;8.112;2024-02-23T02:32:04;89062.53;;;1.22;82.34
69909;BME280;57190;47.918;8.112;2024-02-23T02:34:30;89075.38;;;1.19;82.42
69909;BME280;57190;47.918;8.112;2024-02-23T02:36:56;89077.28;;;1.29;81.38
69909;BME280;57190;47.918;8.112;2024-02-23T02:39:21;89083.31;;;1.24;81.37
69909;BME280;57190;47.918;8.112;2024-02-23T02:41:50;89083.59;;;1.28;81.01
69909;BME280;57190;47.918;8.112;2024-02-23T02:44:16;89058.84;;;1.23;81.67
69909;BME280;57190;47.918;8.112;2024-02-23T02:46:42;89062.31;;;1.29;81.84
69909;BME280;57190;47.918;8.112;2024-02-23T02:49:07;89068.38;;;1.35;81.97
69909;BME280;57190;47.918;8.112;2024-02-23T02:51:33;89063.34;;;1.28;82.52
69909;BME280;57190;47.918;8.112;2024-02-23T02:53:58;89074.13;;;1.32;82.61
69909;BME280;57190;47.918;8.112;2024-02-23T02:56:24;89061.53;;;1.34;82.34
69909;BME280;57190;47.918;8.112;2024-02-23T02:58:49;89060.50;;;1.35;82.17
69909;BME280;57190;47.918;8.112;2024-02-23T03:01:15;89044.75;;;1.40;81.93
69909;BME280;57190;47.918;8.112;2024-02-23T03:03:40;89046.88;;;1.38;81.79
69909;BME280;57190;47.918;8.112;2024-02-23T03:06:06;89068.66;;;1.38;81.05
69909;BME280;57190;47.918;8.112;2024-02-23T03:08:32;89064.16;;;1.34;81.45
69909;BME280;57190;47.918;8.112;2024-02-23T03:10:57;89071.00;;;1.30;81.27
69909;BME280;57190;47.918;8.112;2024-02-23T03:13:23;89074.91;;;1.27;81.53
69909;BME280;57190;47.918;8.112;2024-02-23T03:15:48;89065.97;;;1.23;81.08
69909;BME280;57190;47.918;8.112;2024-02-23T03:18:14;89081.44;;;1.19;81.49
69909;BME280;57190;47.918;8.112;2024-02-23T03:20:41;89089.34;;;1.24;81.22
69909;BME280;57190;47.918;8.112;2024-02-23T03:23:07;89075.94;;;1.21;80.63
69909;BME280;57190;47.918;8.112;2024-02-23T03:25:32;89089.31;;;1.19;80.80
69909;BME280;57190;47.918;8.112;2024-02-23T03:27:58;89076.97;;;1.20;79.60
69909;BME280;57190;47.918;8.112;2024-02-23T03:30:23;89070.66;;;1.16;79.19
69909;BME280;57190;47.918;8.112;2024-02-23T03:32:49;89071.97;;;1.13;79.46
69909;BME280;57190;47.918;8.112;2024-02-23T03:35:15;89067.50;;;1.14;79.18
69909;BME280;57190;47.918;8.112;2024-02-23T03:37:40;89062.50;;;1.17;79.62
69909;BME280;57190;47.918;8.112;2024-02-23T03:40:06;89074.63;;;1.23;78.48
69909;BME280;57190;47.918;8.112;2024-02-23T03:42:32;89068.31;;;1.19;78.12
69909;BME280;57190;47.918;8.112;2024-02-23T03:44:57;89090.09;;;1.15;78.73
69909;BME280;57190;47.918;8.112;2024-02-23T03:47:23;89070.13;;;1.14;78.64
69909;BME280;57190;47.918;8.112;2024-02-23T03:49:48;89075.88;;;1.10;79.26
69909;BME280;57190;47.918;8.112;2024-02-23T03:52:14;89075.38;;;1.14;78.80
69909;BME280;57190;47.918;8.112;2024-02-23T03:54:39;89072.72;;;1.08;77.98
69909;BME280;57190;47.918;8.112;2024-02-23T03:57:05;89064.31;;;1.12;77.55
69909;BME280;57190;47.918;8.112;2024-02-23T03:59:30;89082.19;;;1.15;78.10
69909;BME280;57190;47.918;8.112;2024-02-23T04:01:56;89074.31;;;1.15;79.08
69909;BME280;57190;47.918;8.112;2024-02-23T04:04:22;89068.75;;;1.06;78.67
69909;BME280;57190;47.918;8.112;2024-02-23T04:06:47;89061.94;;;1.05;77.21
69909;BME280;57190;47.918;8.112;2024-02-23T04:09:13;89060.66;;;1.13;76.15
69909;BME280;57190;47.918;8.112;2024-02-23T04:11:38;89063.53;;;1.11;77.09
69909;BME280;57190;47.918;8.112;2024-02-23T04:14:04;89057.44;;;1.00;77.54
69909;BME280;57190;47.918;8.112;2024-02-23T04:16:32;89057.13;;;0.91;76.47
69909;BME280;57190;47.918;8.112;2024-02-23T04:18:58;89063.41;;;0.90;77.53
69909;BME280;57190;47.918;8.112;2024-02-23T04:21:24;89057.34;;;0.85;77.03
69909;BME280;57190;47.918;8.112;2024-02-23T04:23:50;89059.19;;;0.84;77.16
69909;BME280;57190;47.918;8.112;2024-02-23T04:26:15;89050.53;;;0.89;75.97
69909;BME280;57190;47.918;8.112;2024-02-23T04:28:41;89047.38;;;0.87;75.27
69909;BME280;57190;47.918;8.112;2024-02-23T04:31:10;89047.09;;;0.83;74.65
69909;BME280;57190;47.918;8.112;2024-02-23T04:33:37;89053.38;;;0.77;75.27
69909;BME280;57190;47.918;8.112;2024-02-23T04:36:04;89045.44;;;0.72;77.13
69909;BME280;57190;47.918;8.112;2024-02-23T04:38:30;89040.91;;;0.62;76.83
69909;BME280;57190;47.918;8.112;2024-02-23T04:40:56;89044.31;;;0.57;75.81
69909;BME280;57190;47.918;8.112;2024-02-23T04:43:23;89048.78;;;0.62;75.77
69909;BME280;57190;47.918;8.112;2024-02-23T04:45:49;89040.38;;;0.60;76.10
69909;BME280;57190;47.918;8.112;2024-02-23T04:48:14;89050.09;;;0.59;76.37
69909;BME280;57190;47.918;8.112;2024-02-23T04:50:39;89041.66;;;0.52;76.05
69909;BME280;57190;47.918;8.112;2024-02-23T04:53:05;89038.78;;;0.59;75.33
69909;BME280;57190;47.918;8.112;2024-02-23T04:55:30;89026.47;;;0.54;76.04
69909;BME280;57190;47.918;8.112;2024-02-23T04:57:56;89020.75;;;0.62;76.17
69909;BME280;57190;47.918;8.112;2024-02-23T05:00:21;89029.09;;;0.54;76.69
69909;BME280;57190;47.918;8.112;2024-02-23T05:02:47;89032.22;;;0.56;77.05
69909;BME280;57190;47.918;8.112;2024-02-23T05:05:12;89025.69;;;0.59;76.22
69909;BME280;57190;47.918;8.112;2024-02-23T05:07:38;89028.47;;;0.47;76.92
69909;BME280;57190;47.918;8.112;2024-02-23T05:10:04;89023.00;;;0.49;77.03
69909;BME280;57190;47.918;8.112;2024-02-23T05:12:30;89039.50;;;0.44;77.00
69909;BME280;57190;47.918;8.112;2024-02-23T05:14:55;89033.69;;;0.42;77.10
69909;BME280;57190;47.918;8.112;2024-02-23T05:17:21;89027.22;;;0.50;76.51
69909;BME280;57190;47.918;8.112;2024-02-23T05:19:46;89034.28;;;0.49;76.85
69909;BME280;57190;47.918;8.112;2024-02-23T05:22:12;89030.34;;;0.52;76.53
69909;BME280;57190;47.918;8.112;2024-02-23T05:24:38;89026.94;;;0.46;76.87
69909;BME280;57190;47.918;8.112;2024-02-23T05:27:03;89019.28;;;0.44;76.58
69909;BME280;57190;47.918;8.112;2024-02-23T05:29:29;89028.91;;;0.34;77.00
69909;BME280;57190;47.918;8.112;2024-02-23T05:31:54;89027.91;;;0.40;77.35
69909;BME280;57190;47.918;8.112;2024-02-23T05:34:20;89010.09;;;0.42;77.08
69909;BME280;57190;47.918;8.112;2024-02-23T05:36:47;89026.56;;;0.32;76.94
69909;BME280;57190;47.918;8.112;2024-02-23T05:39:13;89025.47;;;0.28;76.98
69909;BME280;57190;47.918;8.112;2024-02-23T05:41:40;89033.88;;;0.30;77.28
69909;BME280;57190;47.918;8.112;2024-02-23T05:44:09;89031.28;;;0.35;77.43
69909;BME280;57190;47.918;8.112;2024-02-23T05:46:36;89029.69;;;0.34;77.56
69909;BME280;57190;47.918;8.112;2024-02-23T05:49:02;89024.72;;;0.33;77.65
69909;BME280;57190;47.918;8.112;2024-02-23T05:51:29;89025.22;;;0.29;77.38
69909;BME280;57190;47.918;8.112;2024-02-23T05:53:55;89021.78;;;0.24;77.48
69909;BME280;57190;47.918;8.112;2024-02-23T05:56:20;89026.19;;;0.18;76.46
69909;BME280;57190;47.918;8.112;2024-02-23T05:58:46;89024.50;;;0.07;76.03
69909;BME280;57190;47.918;8.112;2024-02-23T06:01:12;89021.09;;;0.06;76.38
69909;BME280;57190;47.918;8.112;2024-02-23T06:03:37;89031.09;;;0.09;76.27
69909;BME280;57190;47.918;8.112;2024-02-23T06:06:07;89026.09;;;0.08;76.43
69909;BME280;57190;47.918;8.112;2024-02-23T06:08:33;89018.13;;;-0.03;76.44
69909;BME280;57190;47.918;8.112;2024-02-23T06:10:59;89017.09;;;-0.02;76.38
69909;BME280;57190;47.918;8.112;2024-02-23T06:13:25;89017.16;;;0.04;76.03
69909;BME280;57190;47.918;8.112;2024-02-23T06:15:50;89024.47;;;0.02;76.50
69909;BME280;57190;47.918;8.112;2024-02-23T06:18:16;89015.00;;;-0.05;76.92
69909;BME280;57190;47.918;8.112;2024-02-23T06:20:42;89007.16;;;0.01;77.37
69909;BME280;57190;47.918;8.112;2024-02-23T06:23:07;89009.59;;;0.07;77.16
69909;BME280;57190;47.918;8.112;2024-02-23T06:25:33;89012.72;;;0.09;77.12
69909;BME280;57190;47.918;8.112;2024-02-23T06:28:01;89007.28;;;0.16;77.27
69909;BME280;57190;47.918;8.112;2024-02-23T06:30:27;89023.47;;;0.08;77.34
69909;BME280;57190;47.918;8.112;2024-02-23T06:32:52;89020.06;;;0.07;77.13
69909;BME280;57190;47.918;8.112;2024-02-23T06:35:18;89014.59;;;0.14;77.37
69909;BME280;57190;47.918;8.112;2024-02-23T06:37:43;89020.88;;;0.13;75.63
69909;BME280;57190;47.918;8.112;2024-02-23T06:40:09;89029.56;;;0.13;76.59
69909;BME280;57190;47.918;8.112;2024-02-23T06:42:35;89044.00;;;0.16;75.85
69909;BME280;57190;47.918;8.112;2024-02-23T06:45:00;89040.31;;;0.12;75.62
69909;BME280;57190;47.918;8.112;2024-02-23T06:47:26;89041.84;;;0.13;74.73
69909;BME280;57190;47.918;8.112;2024-02-23T06:49:51;89054.38;;;0.06;75.35
69909;BME280;57190;47.918;8.112;2024-02-23T06:52:17;89058.84;;;0.05;75.34
69909;BME280;57190;47.918;8.112;2024-02-23T06:54:43;89058.84;;;0.05;75.45
69909;BME280;57190;47.918;8.112;2024-02-23T06:57:08;89060.66;;;0.05;75.71
69909;BME280;57190;47.918;8.112;2024-02-23T06:59:34;89061.72;;;0.04;74.97
69909;BME280;57190;47.918;8.112;2024-02-23T07:01:59;89066.16;;;0.03;74.86
69909;BME280;57190;47.918;8.112;2024-02-23T07:04:25;89070.91;;;0.06;75.40
69909;BME280;57190;47.918;8.112;2024-02-23T07:06:50;89070.47;;;0.14;75.63
69909;BME280;57190;47.918;8.112;2024-02-23T07:09:16;89058.94;;;0.15;75.40
69909;BME280;57190;47.918;8.112;2024-02-23T07:11:41;89057.59;;;0.13;75.69
69909;BME280;57190;47.918;8.112;2024-02-23T07:14:10;89059.69;;;0.11;75.49
69909;BME280;57190;47.918;8.112;2024-02-23T07:16:38;89064.13;;;0.10;76.15
69909;BME280;57190;47.918;8.112;2024-02-23T07:19:07;89056.06;;;0.17;76.01
69909;BME280;57190;47.918;8.112;2024-02-23T07:21:33;89048.69;;;0.14;76.17
69909;BME280;57190;47.918;8.112;2024-02-23T07:23:59;89062.03;;;0.07;75.87
69909;BME280;57190;47.918;8.112;2024-02-23T07:26:25;89067.75;;;0.04;76.14
69909;BME280;57190;47.918;8.112;2024-02-23T07:28:50;89077.97;;;0.06;76.24
69909;BME280;57190;47.918;8.112;2024-02-23T07:31:16;89082.00;;;0.13;76.29
69909;BME280;57190;47.918;8.112;2024-02-23T07:33:42;89077.34;;;0.21;75.45
69909;BME280;57190;47.918;8.112;2024-02-23T07:36:14;89085.75;;;0.55;74.82
69909;BME280;57190;47.918;8.112;2024-02-23T07:38:39;89086.81;;;0.92;73.87
69909;BME280;57190;47.918;8.112;2024-02-23T07:41:05;89081.50;;;1.30;72.91
69909;BME280;57190;47.918;8.112;2024-02-23T07:43:30;89080.88;;;1.70;71.51
69909;BME280;57190;47.918;8.112;2024-02-23T07:45:56;89082.03;;;2.06;70.12
69909;BME280;57190;47.918;8.112;2024-02-23T07:48:21;89085.25;;;2.95;68.04
69909;BME280;57190;47.918;8.112;2024-02-23T07:50:47;89084.91;;;3.43;67.48
69909;BME280;57190;47.918;8.112;2024-02-23T07:53:12;89070.31;;;4.27;65.71
69909;BME280;57190;47.918;8.112;2024-02-23T07:55:38;89074.00;;;4.31;63.61
69909;BME280;57190;47.918;8.112;2024-02-23T07:58:03;89072.94;;;3.77;64.16
69909;BME280;57190;47.918;8.112;2024-02-23T08:00:29;89062.28;;;4.03;63.72
69909;BME280;57190;47.918;8.112;2024-02-23T08:02:54;89064.16;;;4.42;63.60
69909;BME280;57190;47.918;8.112;2024-02-23T08:05:24;89064.31;;;6.22;57.59
69909;BME280;57190;47.918;8.112;2024-02-23T08:07:49;89071.19;;;6.61;56.70
69909;BME280;57190;47.918;8.112;2024-02-23T08:10:15;89064.63;;;9.92;49.66
69909;BME280;57190;47.918;8.112;2024-02-23T08:12:41;89065.69;;;10.89;46.60
69909;BME280;57190;47.918;8.112;2024-02-23T08:15:07;89058.06;;;9.89;47.90
69909;BME280;57190;47.918;8.112;2024-02-23T08:17:32;89056.25;;;8.76;49.47
69909;BME280;57190;47.918;8.112;2024-02-23T08:19:58;89050.63;;;8.78;48.75
69909;BME280;57190;47.918;8.112;2024-02-23T08:22:23;89046.72;;;10.99;45.40
69909;BME280;57190;47.918;8.112;2024-02-23T08:24:49;89036.38;;;11.15;44.56
69909;BME280;57190;47.918;8.112;2024-02-23T08:27:14;89043.19;;;13.70;43.36
69909;BME280;57190;47.918;8.112;2024-02-23T08:29:40;89036.47;;;15.21;38.09
69909;BME280;57190;47.918;8.112;2024-02-23T08:32:06;89026.34;;;18.76;31.94
69909;BME280;57190;47.918;8.112;2024-02-23T08:34:32;89021.47;;;21.73;27.58
69909;BME280;57190;47.918;8.112;2024-02-23T08:37:00;89025.41;;;23.25;26.08
69909;BME280;57190;47.918;8.112;2024-02-23T08:39:25;89027.19;;;25.00;25.53
69909;BME280;57190;47.918;8.112;2024-02-23T08:41:52;89028.84;;;24.87;23.01
69909;BME280;57190;47.918;8.112;2024-02-23T08:44:18;89021.16;;;26.14;22.62
69909;BME280;57190;47.918;8.112;2024-02-23T08:46:43;89013.91;;;26.97;22.31
69909;BME280;57190;47.918;8.112;2024-02-23T08:49:08;89015.91;;;28.59;20.35
69909;BME280;57190;47.918;8.112;2024-02-23T08:51:34;89016.56;;;25.66;21.58
69909;BME280;57190;47.918;8.112;2024-02-23T08:53:59;89014.28;;;25.57;23.19
69909;BME280;57190;47.918;8.112;2024-02-23T08:56:30;89009.53;;;26.03;21.79
69909;BME280;57190;47.918;8.112;2024-02-23T08:58:55;89011.38;;;25.79;21.77
69909;BME280;57190;47.918;8.112;2024-02-23T09:01:21;89016.94;;;24.48;23.95
69909;BME280;57190;47.918;8.112;2024-02-23T09:03:47;89014.78;;;22.37;25.52
69909;BME280;57190;47.918;8.112;2024-02-23T09:06:12;89002.34;;;22.36;25.58
69909;BME280;57190;47.918;8.112;2024-02-23T09:08:38;89005.91;;;20.58;25.67
69909;BME280;57190;47.918;8.112;2024-02-23T09:11:04;89008.06;;;21.35;25.71
69909;BME280;57190;47.918;8.112;2024-02-23T09:13:29;89011.81;;;20.71;27.68
69909;BME280;57190;47.918;8.112;2024-02-23T09:15:55;89015.16;;;20.53;26.72
69909;BME280;57190;47.918;8.112;2024-02-23T09:18:21;89008.47;;;18.91;29.78
69909;BME280;57190;47.918;8.112;2024-02-23T09:20:46;89016.13;;;17.76;30.54
69909;BME280;57190;47.918;8.112;2024-02-23T09:23:11;89009.41;;;17.11;31.46
69909;BME280;57190;47.918;8.112;2024-02-23T09:25:39;89016.91;;;15.78;33.38
69909;BME280;57190;47.918;8.112;2024-02-23T09:28:04;89023.91;;;15.95;34.92
69909;BME280;57190;47.918;8.112;2024-02-23T09:30:30;89025.16;;;15.28;35.65
69909;BME280;57190;47.918;8.112;2024-02-23T09:32:55;89016.75;;;16.95;33.39
69909;BME280;57190;47.918;8.112;2024-02-23T09:35:21;89017.63;;;14.31;35.70
69909;BME280;57190;47.918;8.112;2024-02-23T09:37:46;89028.38;;;13.51;37.23
69909;BME280;57190;47.918;8.112;2024-02-23T09:40:12;89018.72;;;11.58;40.37
69909;BME280;57190;47.918;8.112;2024-02-23T09:42:38;89028.78;;;10.47;42.77
69909;BME280;57190;47.918;8.112;2024-02-23T09:45:05;89032.00;;;9.78;44.60
69909;BME280;57190;47.918;8.112;2024-02-23T09:47:31;89033.22;;;9.40;44.74
69909;BME280;57190;47.918;8.112;2024-02-23T09:49:56;89021.06;;;9.25;45.12
69909;BME280;57190;47.918;8.112;2024-02-23T09:52:22;89021.41;;;10.44;44.00
69909;BME280;57190;47.918;8.112;2024-02-23T09:54:48;89021.00;;;11.04;42.99
69909;BME280;57190;47.918;8.112;2024-02-23T09:57:15;89032.56;;;12.17;42.06
69909;BME280;57190;47.918;8.112;2024-02-23T09:59:42;89025.69;;;10.98;42.77
69909;BME280;57190;47.918;8.112;2024-02-23T10:02:09;89028.53;;;10.84;43.85
69909;BME280;57190;47.918;8.112;2024-02-23T10:04:41;89027.22;;;11.43;43.20
69909;BME280;57190;47.918;8.112;2024-02-23T10:07:08;89031.13;;;10.49;44.40
69909;BME280;57190;47.918;8.112;2024-02-23T10:09:35;89028.81;;;9.35;44.71
69909;BME280;57190;47.918;8.112;2024-02-23T10:12:02;89034.75;;;9.09;46.40
69909;BME280;57190;47.918;8.112;2024-02-23T10:14:27;89035.56;;;8.73;47.31
69909;BME280;57190;47.918;8.112;2024-02-23T10:16:53;89030.84;;;8.70;47.88
69909;BME280;57190;47.918;8.112;2024-02-23T10:19:20;89034.47;;;8.24;47.59
69909;BME280;57190;47.918;8.112;2024-02-23T10:21:46;89035.72;;;8.40;47.32
69909;BME280;57190;47.918;8.112;2024-02-23T10:24:12;89041.38;;;7.97;49.22
69909;BME280;57190;47.918;8.112;2024-02-23T10:26:38;89039.88;;;7.77;49.45
69909;BME280;57190;47.918;8.112;2024-02-23T10:29:03;89042.25;;;7.92;49.35
69909;BME280;57190;47.918;8.112;2024-02-23T10:31:32;89036.34;;;7.95;48.89
69909;BME280;57190;47.918;8.112;2024-02-23T10:33:59;89040.16;;;7.89;49.82
69909;BME280;57190;47.918;8.112;2024-02-23T10:36:29;89043.31;;;7.77;50.57
69909;BME280;57190;47.918;8.112;2024-02-23T10:39:00;89035.94;;;8.02;49.22
69909;BME280;57190;47.918;8.112;2024-02-23T10:41:34;89027.72;;;8.68;47.97
69909;BME280;57190;47.918;8.112;2024-02-23T10:44:01;89028.31;;;8.65;47.54
69909;BME280;57190;47.918;8.112;2024-02-23T10:46:30;89029.28;;;7.77;47.49
69909;BME280;57190;47.918;8.112;2024-02-23T10:48:58;89023.66;;;7.78;49.90
69909;BME280;57190;47.918;8.112;2024-02-23T10:51:25;89031.22;;;7.71;51.26
69909;BME280;57190;47.918;8.112;2024-02-23T10:53:52;89036.06;;;7.83;51.00
69909;BME280;57190;47.918;8.112;2024-02-23T10:56:20;89038.91;;;7.86;50.60
69909;BME280;57190;47.918;8.112;2024-02-23T10:58:48;89036.78;;;7.28;50.89
69909;BME280;57190;47.918;8.112;2024-02-23T11:01:14;89039.75;;;6.93;51.79
69909;BME280;57190;47.918;8.112;2024-02-23T11:03:42;89039.69;;;6.79;52.20
69909;BME280;57190;47.918;8.112;2024-02-23T11:06:10;89037.97;;;6.69;51.93
69909;BME280;57190;47.918;8.112;2024-02-23T11:08:36;89031.53;;;6.75;52.33
69909;BME280;57190;47.918;8.112;2024-02-23T11:11:09;89029.69;;;6.57;52.59
69909;BME280;57190;47.918;8.112;2024-02-23T11:13:36;89033.53;;;6.65;53.64
69909;BME280;57190;47.918;8.112;2024-02-23T11:16:03;89021.03;;;6.84;53.75
69909;BME280;57190;47.918;8.112;2024-02-23T11:18:29;89025.19;;;6.90;52.93
69909;BME280;57190;47.918;8.112;2024-02-23T11:20:58;89027.56;;;6.92;52.50
69909;BME280;57190;47.918;8.112;2024-02-23T11:23:24;89023.47;;;7.00;51.60
69909;BME280;57190;47.918;8.112;2024-02-23T11:26:05;89020.47;;;6.87;52.71
69909;BME280;57190;47.918;8.112;2024-02-23T11:28:31;89028.38;;;6.73;53.24
69909;BME280;57190;47.918;8.112;2024-02-23T11:30:57;89021.47;;;6.58;53.68
69909;BME280;57190;47.918;8.112;2024-02-23T11:33:28;89025.25;;;6.33;53.96
69909;BME280;57190;47.918;8.112;2024-02-23T11:36:04;89032.31;;;6.00;53.18
69909;BME280;57190;47.918;8.112;2024-02-23T11:38:30;89022.78;;;5.98;54.70
69909;BME280;57190;47.918;8.112;2024-02-23T11:40:57;89020.47;;;5.92;54.63
69909;BME280;57190;47.918;8.112;2024-02-23T11:43:23;89015.06;;;5.78;54.46
69909;BME280;57190;47.918;8.112;2024-02-23T11:45:48;89018.38;;;5.89;55.09
69909;BME280;57190;47.918;8.112;2024-02-23T11:48:14;89015.28;;;5.81;55.53
69909;BME280;57190;47.918;8.112;2024-02-23T11:50:39;89016.13;;;5.77;55.08
69909;BME280;57190;47.918;8.112;2024-02-23T11:53:04;89020.22;;;5.69;54.57
69909;BME280;57190;47.918;8.112;2024-02-23T11:55:30;89014.16;;;5.88;55.99
69909;BME280;57190;47.918;8.112;2024-02-23T11:57:56;89016.19;;;5.96;55.83
69909;BME280;57190;47.918;8.112;2024-02-23T12:00:24;89010.44;;;5.89;55.65
69909;BME280;57190;47.918;8.112;2024-02-23T12:02:50;89008.00;;;5.92;56.32
69909;BME280;57190;47.918;8.112;2024-02-23T12:05:16;89011.28;;;6.08;56.10
69909;BME280;57190;47.918;8.112;2024-02-23T12:07:42;89005.47;;;6.06;55.08
69909;BME280;57190;47.918;8.112;2024-02-23T12:10:08;88997.72;;;5.91;56.72
69909;BME280;57190;47.918;8.112;2024-02-23T12:12:34;88998.06;;;5.84;55.67
69909;BME280;57190;47.918;8.112;2024-02-23T12:14:59;89000.84;;;5.74;56.97
69909;BME280;57190;47.918;8.112;2024-02-23T12:17:25;89002.44;;;5.75;57.00
69909;BME280;57190;47.918;8.112;2024-02-23T12:20:00;89000.44;;;5.86;56.28
69909;BME280;57190;47.918;8.112;2024-02-23T12:22:26;89008.72;;;5.79;55.43
69909;BME280;57190;47.918;8.112;2024-02-23T12:24:52;89012.22;;;5.74;56.27
69909;BME280;57190;47.918;8.112;2024-02-23T12:27:17;89016.50;;;5.70;56.31
69909;BME280;57190;47.918;8.112;2024-02-23T12:29:53;89003.16;;;5.56;57.79
69909;BME280;57190;47.918;8.112;2024-02-23T12:32:23;89014.16;;;5.44;57.21
69909;BME280;57190;47.918;8.112;2024-02-23T12:34:48;89018.63;;;5.44;57.77
69909;BME280;57190;47.918;8.112;2024-02-23T12:37:15;89010.47;;;5.40;57.90
69909;BME280;57190;47.918;8.112;2024-02-23T12:39:41;89014.16;;;5.44;58.69
69909;BME280;57190;47.918;8.112;2024-02-23T12:42:08;89014.97;;;5.64;58.42
69909;BME280;57190;47.918;8.112;2024-02-23T12:44:33;89012.84;;;5.66;58.03
69909;BME280;57190;47.918;8.112;2024-02-23T12:46:58;89005.34;;;5.73;58.06
69909;BME280;57190;47.918;8.112;2024-02-23T12:49:24;89015.19;;;5.67;58.37
69909;BME280;57190;47.918;8.112;2024-02-23T12:51:49;89012.16;;;5.55;58.32
69909;BME280;57190;47.918;8.112;2024-02-23T12:54:15;89019.59;;;5.53;57.09
69909;BME280;57190;47.918;8.112;2024-02-23T12:56:40;89015.25;;;5.62;58.51
69909;BME280;57190;47.918;8.112;2024-02-23T12:59:06;89012.72;;;5.52;59.62
69909;BME280;57190;47.918;8.112;2024-02-23T13:01:37;89012.09;;;5.60;59.25
69909;BME280;57190;47.918;8.112;2024-02-23T13:04:04;89011.03;;;5.61;59.27